createdAt,value
2018-12-12T00:01:34.890Z,101811.38
2018-12-12T00:04:02.980Z,101817.48
2018-12-12T00:06:31.425Z,101818.43
2018-12-12T00:08:58.908Z,101817.02
2018-12-12T00:11:27.181Z,101820.50
2018-12-12T00:13:54.780Z,101819.34
2018-12-12T00:16:24.092Z,101823.53
2018-12-12T00:18:51.672Z,101832.84
2018-12-12T00:21:20.091Z,101830.48
2018-12-12T00:23:48.635Z,101832.08
2018-12-12T00:26:17.092Z,101832.77
2018-12-12T00:28:44.677Z,101824.72
2018-12-12T00:31:12.259Z,101826.11
2018-12-12T00:33:40.142Z,101834.59
2018-12-12T00:36:08.120Z,101821.56
2018-12-12T00:38:35.618Z,101834.41
2018-12-12T00:41:03.167Z,101832.38
2018-12-12T00:43:30.720Z,101835.97
2018-12-12T00:45:58.482Z,101832.73
2018-12-12T00:48:26.110Z,101834.80
2018-12-12T00:50:53.703Z,101837.57
2018-12-12T00:53:22.023Z,101836.26
2018-12-12T00:55:49.592Z,101842.45
2018-12-12T00:58:17.131Z,101842.77
2018-12-12T01:00:45.546Z,101840.59
2018-12-12T01:03:13.354Z,101832.26
2018-12-12T01:05:40.857Z,101834.34
2018-12-12T01:08:09.090Z,101827.63
2018-12-12T01:10:38.198Z,101837.36
2018-12-12T01:13:07.431Z,101835.20
2018-12-12T01:15:34.991Z,101843.61
2018-12-12T01:18:03.371Z,101840.48
2018-12-12T01:20:31.431Z,101841.36
2018-12-12T01:22:59.033Z,101842.48
2018-12-12T01:25:26.516Z,101844.12
2018-12-12T01:27:54.343Z,101843.94
2018-12-12T01:30:21.841Z,101858.42
2018-12-12T01:32:49.562Z,101862.58
2018-12-12T01:35:17.065Z,101860.20
2018-12-12T01:37:44.583Z,101866.58
2018-12-12T01:40:12.084Z,101861.55
2018-12-12T01:42:39.584Z,101868.03
2018-12-12T01:45:07.286Z,101861.89
2018-12-12T01:47:37.250Z,101862.03
2018-12-12T01:50:06.374Z,101863.05
2018-12-12T01:52:34.674Z,101862.34
2018-12-12T01:55:02.248Z,101869.42
2018-12-12T01:57:29.972Z,101859.88
2018-12-12T01:59:57.442Z,101860.58
2018-12-12T02:02:25.923Z,101859.70
2018-12-12T02:04:53.366Z,101862.17
2018-12-12T02:07:20.921Z,101870.87
2018-12-12T02:09:48.674Z,101870.47
2018-12-12T02:12:16.181Z,101874.88
2018-12-12T02:14:43.758Z,101877.06
2018-12-12T02:17:11.922Z,101880.47
2018-12-12T02:19:39.479Z,101881.93
2018-12-12T02:22:07.024Z,101880.88
2018-12-12T02:24:36.471Z,101881.17
2018-12-12T02:27:04.041Z,101888.78
2018-12-12T02:29:31.753Z,101884.13
2018-12-12T02:31:59.745Z,101889.40
2018-12-12T02:34:27.355Z,101883.60
2018-12-12T02:36:55.001Z,101880.30
2018-12-12T02:39:23.481Z,101888.77
2018-12-12T02:41:51.062Z,101884.37
2018-12-12T02:44:20.041Z,101883.54
2018-12-12T02:46:47.503Z,101889.22
2018-12-12T02:49:14.985Z,101887.44
2018-12-12T02:51:43.402Z,101889.70
2018-12-12T02:54:10.980Z,101884.37
2018-12-12T02:56:39.526Z,101887.84
2018-12-12T02:59:07.150Z,101890.61
2018-12-12T03:01:35.204Z,101893.98
2018-12-12T03:04:03.571Z,101889.88
2018-12-12T03:06:31.388Z,101899.02
2018-12-12T03:08:59.715Z,101902.95
2018-12-12T03:11:27.323Z,101903.89
2018-12-12T03:13:55.421Z,101907.17
2018-12-12T03:16:22.929Z,101903.31
2018-12-12T03:18:50.483Z,101909.50
2018-12-12T03:21:17.949Z,101905.78
2018-12-12T03:23:45.787Z,101905.39
2018-12-12T03:26:14.243Z,101919.22
2018-12-12T03:28:41.822Z,101912.27
2018-12-12T03:31:09.326Z,101909.72
2018-12-12T03:33:37.776Z,101919.91
2018-12-12T03:36:05.497Z,101913.21
2018-12-12T03:38:32.980Z,101911.98
2018-12-12T03:41:02.501Z,101916.81
2018-12-12T03:43:30.049Z,101909.90
2018-12-12T03:45:57.606Z,101913.98
2018-12-12T03:48:25.295Z,101912.92
2018-12-12T03:50:52.982Z,101907.35
2018-12-12T03:53:21.382Z,101910.84
2018-12-12T03:55:49.839Z,101907.89
2018-12-12T03:58:17.334Z,101909.57
2018-12-12T04:00:44.829Z,101910.19
2018-12-12T04:03:12.381Z,101914.95
2018-12-12T04:05:39.913Z,101913.78
2018-12-12T04:08:08.404Z,101917.25
2018-12-12T04:10:37.020Z,101919.47
2018-12-12T04:13:04.522Z,101918.00
2018-12-12T04:15:32.874Z,101926.23
2018-12-12T04:18:00.437Z,101923.40
2018-12-12T04:20:28.045Z,101920.38
2018-12-12T04:22:57.490Z,101918.89
2018-12-12T04:25:25.048Z,101925.19
2018-12-12T04:27:52.716Z,101918.70
2018-12-12T04:30:22.246Z,101928.02
2018-12-12T04:32:50.695Z,101922.70
2018-12-12T04:35:18.958Z,101927.40
2018-12-12T04:37:46.906Z,101925.25
2018-12-12T04:40:14.413Z,101930.86
2018-12-12T04:42:41.909Z,101931.72
2018-12-12T04:45:09.584Z,101934.44
2018-12-12T04:47:37.139Z,101938.37
2018-12-12T04:50:04.840Z,101932.41
2018-12-12T04:52:32.338Z,101936.98
2018-12-12T04:54:59.922Z,101943.46
2018-12-12T04:57:28.379Z,101945.52
2018-12-12T04:59:56.600Z,101941.16
2018-12-12T05:02:26.852Z,101934.45
2018-12-12T05:04:56.404Z,101947.23
2018-12-12T05:07:24.527Z,101944.98
2018-12-12T05:09:52.183Z,101943.82
2018-12-12T05:12:19.835Z,101939.56
2018-12-12T05:14:47.472Z,101940.72
2018-12-12T05:17:16.675Z,101942.11
2018-12-12T05:19:45.118Z,101944.98
2018-12-12T05:22:12.662Z,101949.08
2018-12-12T05:24:40.168Z,101944.55
2018-12-12T05:27:08.756Z,101949.03
2018-12-12T05:29:36.785Z,101954.88
2018-12-12T05:32:05.925Z,101953.37
2018-12-12T05:34:33.992Z,101953.27
2018-12-12T05:37:01.558Z,101956.39
2018-12-12T05:39:30.060Z,101952.78
2018-12-12T05:41:57.599Z,101953.06
2018-12-12T05:44:26.564Z,101954.05
2018-12-12T05:46:55.174Z,101954.70
2018-12-12T05:49:22.683Z,101962.42
2018-12-12T05:51:50.314Z,101965.89
2018-12-12T05:54:18.113Z,101972.14
2018-12-12T05:56:52.179Z,101971.25
2018-12-12T05:59:16.924Z,101972.56
2018-12-12T06:01:45.362Z,101971.48
2018-12-12T06:04:13.588Z,101973.96
2018-12-12T06:06:42.123Z,101980.48
2018-12-12T06:09:12.832Z,101989.13
2018-12-12T06:11:41.167Z,101984.70
2018-12-12T06:14:09.505Z,101989.09
2018-12-12T06:16:39.002Z,101984.55
2018-12-12T06:19:06.606Z,101989.05
2018-12-12T06:21:34.526Z,101990.95
2018-12-12T06:24:02.075Z,101996.84
2018-12-12T06:26:30.421Z,101991.16
2018-12-12T06:28:58.046Z,101991.20
2018-12-12T06:31:26.453Z,102000.43
2018-12-12T06:33:56.999Z,101998.72
2018-12-12T06:36:27.329Z,101996.64
2018-12-12T06:38:55.432Z,101998.27
2018-12-12T06:41:23.754Z,101994.50
2018-12-12T06:43:53.561Z,102000.58
2018-12-12T06:46:23.074Z,102003.37
2018-12-12T06:48:51.507Z,102001.62
2018-12-12T06:51:19.786Z,102008.50
2018-12-12T06:53:47.453Z,102015.03
2018-12-12T06:56:17.162Z,102017.85
2018-12-12T06:58:45.653Z,102025.89
2018-12-12T07:01:14.126Z,102029.03
2018-12-12T07:03:43.143Z,102025.09
2018-12-12T07:06:11.289Z,102029.03
2018-12-12T07:08:39.633Z,102039.47
2018-12-12T07:11:08.147Z,102036.40
2018-12-12T07:13:36.066Z,102030.67
2018-12-12T07:16:04.878Z,102036.68
2018-12-12T07:18:33.973Z,102030.59
2018-12-12T07:21:02.572Z,102036.68
2018-12-12T07:23:31.970Z,102037.67
2018-12-12T07:25:59.517Z,102044.44
2018-12-12T07:28:27.013Z,102039.70
2018-12-12T07:30:54.524Z,102040.42
2018-12-12T07:33:22.117Z,102039.74
2018-12-12T07:35:49.658Z,102042.12
2018-12-12T07:38:18.176Z,102049.09
2018-12-12T07:40:45.833Z,102047.06
2018-12-12T07:43:13.967Z,102050.17
2018-12-12T07:45:41.492Z,102063.70
2018-12-12T07:48:09.814Z,102066.97
2018-12-12T07:50:40.051Z,102069.40
2018-12-12T07:53:08.880Z,102072.62
2018-12-12T07:55:36.953Z,102078.31
2018-12-12T07:58:05.232Z,102072.78
2018-12-12T08:00:32.760Z,102075.13
2018-12-12T08:03:05.367Z,102075.41
2018-12-12T08:05:29.826Z,102070.87
2018-12-12T08:07:58.182Z,102073.09
2018-12-12T08:10:26.254Z,102077.16
2018-12-12T08:12:57.616Z,102077.87
2018-12-12T08:15:26.829Z,102078.16
2018-12-12T08:17:59.179Z,102085.91
2018-12-12T08:20:27.014Z,102076.36
2018-12-12T08:22:55.805Z,102083.72
2018-12-12T08:25:25.866Z,102079.38
2018-12-12T08:27:53.501Z,102076.92
2018-12-12T08:30:23.744Z,102083.09
2018-12-12T08:32:51.240Z,102070.15
2018-12-12T08:35:18.815Z,102077.47
2018-12-12T08:37:47.964Z,102071.22
2018-12-12T08:40:18.877Z,102074.77
2018-12-12T08:42:50.475Z,102075.39
2018-12-12T08:45:20.637Z,102074.59
2018-12-12T08:47:49.964Z,102074.39
2018-12-12T08:50:18.442Z,102084.91
2018-12-12T08:52:46.079Z,102083.47
2018-12-12T08:55:17.696Z,102084.89
2018-12-12T08:57:43.664Z,102091.90
2018-12-12T09:00:11.262Z,102090.51
2018-12-12T09:02:40.176Z,102094.09
2018-12-12T09:05:07.953Z,102090.86
2018-12-12T09:07:39.161Z,102091.80
2018-12-12T09:10:10.334Z,102090.67
2018-12-12T09:12:42.183Z,102097.87
2018-12-12T09:15:09.827Z,102095.22
2018-12-12T09:17:41.027Z,102091.03
2018-12-12T09:20:12.882Z,102091.98
2018-12-12T09:22:42.379Z,102095.44
2018-12-12T09:25:12.773Z,102095.55
2018-12-12T09:27:42.077Z,102102.87
2018-12-12T09:30:11.505Z,102105.59
2018-12-12T09:32:43.574Z,102111.67
2018-12-12T09:35:15.827Z,102113.74
2018-12-12T09:37:43.776Z,102111.54
2018-12-12T09:40:15.031Z,102104.77
2018-12-12T09:42:42.521Z,102110.05
2018-12-12T09:45:11.866Z,102110.61
2018-12-12T09:47:40.830Z,102113.42
2018-12-12T09:50:12.828Z,102112.93
2018-12-12T09:52:41.759Z,102110.38
2018-12-12T09:55:12.067Z,102110.27
2018-12-12T09:57:40.354Z,102111.78
2018-12-12T10:00:11.369Z,102111.82
2018-12-12T10:02:38.943Z,102115.48
2018-12-12T10:05:10.069Z,102115.25
2018-12-12T10:07:37.641Z,102117.84
2018-12-12T10:10:07.318Z,102112.86
2018-12-12T10:12:37.966Z,102104.84
2018-12-12T10:15:06.958Z,102116.10
2018-12-12T10:17:35.266Z,102117.00
2018-12-12T10:20:03.723Z,102123.02
2018-12-12T10:22:37.490Z,102124.00
2018-12-12T10:25:05.993Z,102120.23
2018-12-12T10:27:35.062Z,102120.52
2018-12-12T10:30:05.049Z,102123.09
2018-12-12T10:32:36.593Z,102124.78
2018-12-12T10:35:06.117Z,102123.04
2018-12-12T10:37:39.388Z,102121.18
2018-12-12T10:40:08.238Z,102115.67
2018-12-12T10:42:35.749Z,102113.48
2018-12-12T10:45:05.568Z,102118.59
2018-12-12T10:47:33.444Z,102112.31
2018-12-12T10:50:03.938Z,102116.62
2018-12-12T10:52:32.260Z,102114.69
2018-12-12T10:54:59.894Z,102107.31
2018-12-12T10:57:27.447Z,102109.95
2018-12-12T10:59:55.133Z,102110.13
2018-12-12T11:02:28.219Z,102113.79
2018-12-12T11:04:56.271Z,102106.63
2018-12-12T11:07:23.862Z,102108.45
2018-12-12T11:09:51.357Z,102108.13
2018-12-12T11:12:18.968Z,102100.30
2018-12-12T11:14:47.513Z,102101.88
2018-12-12T11:17:16.646Z,102100.53
2018-12-12T11:19:44.959Z,102096.97
2018-12-12T11:22:13.618Z,102095.17
2018-12-12T11:24:41.748Z,102088.79
2018-12-12T11:27:11.152Z,102088.02
2018-12-12T11:29:39.140Z,102089.00
2018-12-12T11:32:07.246Z,102088.08
2018-12-12T11:34:39.086Z,102081.48
2018-12-12T11:37:07.809Z,102073.50
2018-12-12T11:39:35.384Z,102075.06
2018-12-12T11:42:02.883Z,102078.34
2018-12-12T11:44:31.226Z,102077.48
2018-12-12T11:46:58.824Z,102073.00
2018-12-12T11:49:26.382Z,102079.37
2018-12-12T11:51:55.095Z,102075.69
2018-12-12T11:54:26.743Z,102077.33
2018-12-12T11:56:57.161Z,102073.62
2018-12-12T11:59:28.111Z,102073.55
2018-12-12T12:01:58.223Z,102072.39
2018-12-12T12:04:30.771Z,102070.17
2018-12-12T12:06:58.595Z,102074.37
2018-12-12T12:09:26.126Z,102073.73
2018-12-12T12:11:55.516Z,102067.13
2018-12-12T12:14:26.110Z,102074.05
2018-12-12T12:16:58.988Z,102064.39
2018-12-12T12:19:30.915Z,102060.56
2018-12-12T12:21:58.512Z,102067.13
2018-12-12T12:24:26.383Z,102065.64
2018-12-12T12:26:56.561Z,102062.77
2018-12-12T12:29:26.558Z,102065.36
2018-12-12T12:31:55.151Z,102065.27
2018-12-12T12:34:22.770Z,102066.52
2018-12-12T12:36:50.446Z,102072.73
2018-12-12T12:39:18.019Z,102064.63
2018-12-12T12:41:45.606Z,102065.31
2018-12-12T12:44:17.767Z,102066.28
2018-12-12T12:46:51.228Z,102066.05
2018-12-12T12:49:18.746Z,102059.28
2018-12-12T12:51:46.387Z,102055.04
2018-12-12T12:54:15.440Z,102054.17
2018-12-12T12:56:46.120Z,102055.32
2018-12-12T12:59:15.516Z,102059.49
2018-12-12T13:01:44.291Z,102065.01
2018-12-12T13:04:13.351Z,102060.77
2018-12-12T13:06:41.309Z,102062.97
2018-12-12T13:09:09.179Z,102059.75
2018-12-12T13:11:38.078Z,102062.91
2018-12-12T13:14:06.623Z,102062.00
2018-12-12T13:16:34.576Z,102057.44
2018-12-12T13:19:03.032Z,102063.28
2018-12-12T13:21:31.993Z,102061.81
2018-12-12T13:24:00.239Z,102057.58
2018-12-12T13:26:28.889Z,102061.55
2018-12-12T13:28:57.404Z,102058.95
2018-12-12T13:31:27.893Z,102064.89
2018-12-12T13:34:01.163Z,102062.61
2018-12-12T13:36:28.752Z,102066.61
2018-12-12T13:38:56.255Z,102056.84
2018-12-12T13:41:25.576Z,102060.46
2018-12-12T13:43:53.288Z,102059.25
2018-12-12T13:46:20.791Z,102063.28
2018-12-12T13:48:49.840Z,102056.16
2018-12-12T13:51:17.486Z,102057.71
2018-12-12T13:53:45.039Z,102049.81
2018-12-12T13:56:12.567Z,102049.14
2018-12-12T13:58:40.064Z,102045.48
2018-12-12T14:01:07.698Z,102049.20
2018-12-12T14:03:35.153Z,102048.44
2018-12-12T14:06:02.678Z,102052.37
2018-12-12T14:08:30.197Z,102051.05
2018-12-12T14:10:57.667Z,102050.08
2018-12-12T14:13:25.140Z,102048.53
2018-12-12T14:15:52.678Z,102037.75
2018-12-12T14:18:20.174Z,102047.66
2018-12-12T14:20:47.853Z,102043.83
2018-12-12T14:23:15.334Z,102046.55
2018-12-12T14:25:43.507Z,102047.02
2018-12-12T14:28:11.233Z,102046.48
2018-12-12T14:30:39.980Z,102045.61
2018-12-12T14:33:09.071Z,102046.15
2018-12-12T14:35:36.711Z,102050.59
2018-12-12T14:38:06.229Z,102049.81
2018-12-12T14:40:33.723Z,102046.79
2018-12-12T14:43:01.328Z,102049.01
2018-12-12T14:45:28.859Z,102046.05
2018-12-12T14:47:56.463Z,102054.75
2018-12-12T14:50:25.013Z,102049.91
2018-12-12T14:52:52.629Z,102049.78
2018-12-12T14:55:20.183Z,102046.41
2018-12-12T14:57:47.952Z,102050.95
2018-12-12T15:00:16.410Z,102050.91
2018-12-12T15:02:44.595Z,102048.66
2018-12-12T15:05:13.007Z,102050.67
2018-12-12T15:07:40.521Z,102054.10
2018-12-12T15:10:08.778Z,102051.81
2018-12-12T15:12:37.322Z,102052.62
2018-12-12T15:15:05.767Z,102063.16
2018-12-12T15:17:35.210Z,102057.25
2018-12-12T15:20:04.483Z,102060.97
2018-12-12T15:22:32.646Z,102061.55
2018-12-12T15:25:00.143Z,102059.91
2018-12-12T15:27:27.672Z,102064.72
2018-12-12T15:29:55.162Z,102066.12
2018-12-12T15:32:22.658Z,102068.25
2018-12-12T15:34:50.210Z,102071.23
2018-12-12T15:37:17.795Z,102063.61
2018-12-12T15:39:46.055Z,102066.53
2018-12-12T15:42:13.646Z,102055.64
2018-12-12T15:44:41.244Z,102069.38
2018-12-12T15:47:09.047Z,102066.77
2018-12-12T15:49:37.269Z,102065.02
2018-12-12T15:52:05.707Z,102059.41
2018-12-12T15:54:33.353Z,102068.13
2018-12-12T15:57:01.055Z,102059.48
2018-12-12T15:59:28.946Z,102072.00
2018-12-12T16:01:56.929Z,102063.36
2018-12-12T16:04:25.239Z,102070.86
2018-12-12T16:06:52.909Z,102069.12
2018-12-12T16:09:20.434Z,102064.52
2018-12-12T16:11:48.049Z,102061.86
2018-12-12T16:14:16.920Z,102065.22
2018-12-12T16:16:44.671Z,102064.12
2018-12-12T16:19:13.428Z,102063.64
2018-12-12T16:21:40.926Z,102067.84
2018-12-12T16:24:08.543Z,102063.62
2018-12-12T16:26:36.427Z,102058.55
2018-12-12T16:29:04.241Z,102062.56
2018-12-12T16:31:32.764Z,102058.22
2018-12-12T16:34:02.925Z,102053.52
2018-12-12T16:36:30.597Z,102059.72
2018-12-12T16:38:58.951Z,102060.02
2018-12-12T16:41:26.990Z,102053.64
2018-12-12T16:43:55.302Z,102060.37
2018-12-12T16:46:23.842Z,102058.41
2018-12-12T16:48:51.531Z,102059.50
2018-12-12T16:51:19.084Z,102062.37
2018-12-12T16:53:46.953Z,102059.02
2018-12-12T16:56:15.270Z,102063.05
2018-12-12T16:58:43.291Z,102059.47
2018-12-12T17:01:11.721Z,102059.80
2018-12-12T17:03:39.280Z,102064.98
2018-12-12T17:06:06.990Z,102068.31
2018-12-12T17:08:35.482Z,102071.27
2018-12-12T17:11:03.012Z,102068.03
2018-12-12T17:13:30.945Z,102067.25
2018-12-12T17:16:00.101Z,102059.02
2018-12-12T17:18:27.727Z,102066.09
2018-12-12T17:20:55.232Z,102062.73
2018-12-12T17:23:24.405Z,102057.52
2018-12-12T17:25:52.548Z,102062.48
2018-12-12T17:28:21.985Z,102064.06
2018-12-12T17:30:50.262Z,102060.67
2018-12-12T17:33:17.817Z,102063.11
2018-12-12T17:35:45.338Z,102059.72
2018-12-12T17:38:14.926Z,102060.41
2018-12-12T17:40:42.611Z,102060.09
2018-12-12T17:43:10.106Z,102053.75
2018-12-12T17:45:37.596Z,102058.16
2018-12-12T17:48:07.178Z,102059.83
2018-12-12T17:50:35.120Z,102059.72
2018-12-12T17:53:03.621Z,102062.67
2018-12-12T17:55:31.145Z,102063.91
2018-12-12T17:57:58.790Z,102062.05
2018-12-12T18:00:27.088Z,102062.16
2018-12-12T18:02:54.631Z,102065.98
2018-12-12T18:05:22.888Z,102064.60
2018-12-12T18:07:50.552Z,102063.22
2018-12-12T18:10:18.107Z,102066.20
2018-12-12T18:12:45.576Z,102065.52
2018-12-12T18:15:14.049Z,102063.25
2018-12-12T18:17:41.546Z,102062.81
2018-12-12T18:20:09.277Z,102065.88
2018-12-12T18:22:36.783Z,102071.45
2018-12-12T18:25:04.407Z,102073.06
2018-12-12T18:27:32.073Z,102066.20
2018-12-12T18:29:59.553Z,102067.05
2018-12-12T18:32:27.113Z,102066.75
2018-12-12T18:34:54.670Z,102069.48
2018-12-12T18:37:22.263Z,102059.14
2018-12-12T18:39:50.774Z,102063.11
2018-12-12T18:42:18.482Z,102064.09
2018-12-12T18:44:46.010Z,102060.48
2018-12-12T18:47:13.597Z,102065.40
2018-12-12T18:49:41.823Z,102061.64
2018-12-12T18:52:09.347Z,102063.90
2018-12-12T18:54:37.261Z,102055.38
2018-12-12T18:57:04.787Z,102063.53
2018-12-12T18:59:32.310Z,102054.00
2018-12-12T19:01:59.830Z,102054.76
2018-12-12T19:04:27.570Z,102057.82
2018-12-12T19:06:55.585Z,102055.11
2018-12-12T19:09:24.263Z,102053.30
2018-12-12T19:11:51.755Z,102052.89
2018-12-12T19:14:19.559Z,102053.55
2018-12-12T19:16:47.121Z,102050.05
2018-12-12T19:19:14.861Z,102055.70
2018-12-12T19:21:42.401Z,102052.09
2018-12-12T19:24:09.935Z,102052.97
2018-12-12T19:26:38.191Z,102046.12
2018-12-12T19:29:05.658Z,102047.69
2018-12-12T19:31:33.121Z,102052.97
2018-12-12T19:34:00.986Z,102049.24
2018-12-12T19:36:28.548Z,102045.09
2018-12-12T19:38:56.095Z,102052.30
2018-12-12T19:41:24.348Z,102047.87
2018-12-12T19:43:52.241Z,102050.45
2018-12-12T19:46:19.750Z,102053.55
2018-12-12T19:48:47.353Z,102058.39
2018-12-12T19:51:14.883Z,102055.16
2018-12-12T19:53:42.464Z,102060.73
2018-12-12T19:56:10.950Z,102054.83
2018-12-12T19:58:39.993Z,102055.55
2018-12-12T20:01:07.665Z,102057.88
2018-12-12T20:03:35.194Z,102059.16
2018-12-12T20:06:03.372Z,102058.13
2018-12-12T20:08:30.840Z,102060.79
2018-12-12T20:10:58.419Z,102053.66
2018-12-12T20:13:25.946Z,102059.42
2018-12-12T20:15:53.505Z,102053.14
2018-12-12T20:18:21.653Z,102053.73
2018-12-12T20:20:49.197Z,102057.86
2018-12-12T20:23:16.778Z,102057.46
2018-12-12T20:25:44.312Z,102059.39
2018-12-12T20:28:12.369Z,102061.08
2018-12-12T20:30:39.941Z,102065.77
2018-12-12T20:33:09.686Z,102064.21
2018-12-12T20:35:37.218Z,102066.28
2018-12-12T20:38:04.720Z,102065.89
2018-12-12T20:40:32.247Z,102067.18
2018-12-12T20:42:59.793Z,102063.36
2018-12-12T20:45:28.358Z,102063.15
2018-12-12T20:47:55.902Z,102067.77
2018-12-12T20:50:23.414Z,102064.02
2018-12-12T20:52:51.067Z,102060.67
2018-12-12T20:55:18.677Z,102062.78
2018-12-12T20:57:48.625Z,102066.28
2018-12-12T21:00:17.608Z,102073.69
2018-12-12T21:02:45.139Z,102071.62
2018-12-12T21:05:12.721Z,102068.88
2018-12-12T21:07:40.231Z,102068.27
2018-12-12T21:10:07.910Z,102070.30
2018-12-12T21:12:35.533Z,102071.39
2018-12-12T21:15:03.663Z,102074.55
2018-12-12T21:17:31.299Z,102075.09
2018-12-12T21:19:59.254Z,102073.42
2018-12-12T21:22:26.831Z,102072.95
2018-12-12T21:24:55.527Z,102074.70
2018-12-12T21:27:23.134Z,102071.84
2018-12-12T21:29:50.748Z,102069.62
2018-12-12T21:32:18.262Z,102072.05
2018-12-12T21:34:45.736Z,102068.15
2018-12-12T21:37:13.405Z,102076.23
2018-12-12T21:39:41.123Z,102072.84
2018-12-12T21:42:09.492Z,102077.78
2018-12-12T21:44:36.952Z,102078.11
2018-12-12T21:47:05.320Z,102083.02
2018-12-12T21:49:32.880Z,102079.86
2018-12-12T21:52:00.419Z,102082.81
2018-12-12T21:54:27.939Z,102080.73
2018-12-12T21:56:55.402Z,102085.39
2018-12-12T21:59:22.910Z,102082.37
2018-12-12T22:01:50.398Z,102084.20
2018-12-12T22:04:17.900Z,102085.52
2018-12-12T22:06:45.427Z,102091.23
2018-12-12T22:09:12.923Z,102084.87
2018-12-12T22:11:40.457Z,102092.39
2018-12-12T22:14:08.630Z,102084.39
2018-12-12T22:16:36.142Z,102078.16
2018-12-12T22:19:04.033Z,102079.20
2018-12-12T22:21:32.511Z,102084.86
2018-12-12T22:24:00.275Z,102088.97
2018-12-12T22:26:27.840Z,102086.59
2018-12-12T22:28:55.377Z,102083.47
2018-12-12T22:31:22.842Z,102083.19
2018-12-12T22:33:50.375Z,102081.52
2018-12-12T22:36:17.893Z,102086.13
2018-12-12T22:38:45.450Z,102086.22
2018-12-12T22:41:14.029Z,102080.99
2018-12-12T22:43:41.523Z,102083.69
2018-12-12T22:46:09.102Z,102083.41
2018-12-12T22:48:36.564Z,102088.37
2018-12-12T22:51:04.150Z,102078.33
2018-12-12T22:53:31.616Z,102078.41
2018-12-12T22:55:59.229Z,102082.55
2018-12-12T22:58:26.757Z,102090.84
2018-12-12T23:01:15.123Z,102083.75
2018-12-12T23:03:42.600Z,102091.17
2018-12-12T23:06:10.133Z,102085.83
2018-12-12T23:08:37.732Z,102088.55
2018-12-12T23:11:05.217Z,102083.81
2018-12-12T23:13:32.767Z,102082.53
2018-12-12T23:16:00.452Z,102083.73
2018-12-12T23:18:27.999Z,102090.91
2018-12-12T23:20:55.473Z,102087.50
2018-12-12T23:23:22.955Z,102093.77
2018-12-12T23:25:50.434Z,102089.42
2018-12-12T23:28:17.962Z,102088.94
2018-12-12T23:30:45.484Z,102085.26
2018-12-12T23:33:12.980Z,102086.53
2018-12-12T23:35:40.507Z,102088.98
2018-12-12T23:38:08.044Z,102091.14
2018-12-12T23:40:35.531Z,102081.14
2018-12-12T23:43:03.332Z,102079.95
2018-12-12T23:45:31.513Z,102081.63
2018-12-12T23:47:59.071Z,102070.57
2018-12-12T23:50:27.495Z,102072.72
2018-12-12T23:52:54.991Z,102066.58
2018-12-12T23:55:23.231Z,102067.89
2018-12-12T23:57:50.729Z,102062.89
